createdAt,value
2018-09-23T00:00:23.779Z,14.00
2018-09-23T00:02:51.464Z,14.00
2018-09-23T00:05:19.254Z,14.00
2018-09-23T00:07:47.140Z,14.00
2018-09-23T00:10:14.838Z,14.00
2018-09-23T00:12:42.560Z,14.00
2018-09-23T00:15:10.314Z,14.00
2018-09-23T00:17:38.083Z,14.00
2018-09-23T00:20:05.939Z,13.90
2018-09-23T00:22:33.550Z,13.90
2018-09-23T00:25:01.172Z,13.90
2018-09-23T00:27:28.800Z,13.90
2018-09-23T00:29:56.331Z,13.90
2018-09-23T00:32:24.665Z,13.80
2018-09-23T00:34:52.270Z,13.80
2018-09-23T00:37:20.336Z,13.70
2018-09-23T00:39:47.920Z,13.70
2018-09-23T00:42:15.449Z,13.60
2018-09-23T00:44:42.968Z,13.50
2018-09-23T00:47:10.579Z,13.50
2018-09-23T00:49:38.167Z,13.40
2018-09-23T00:52:05.843Z,13.40
2018-09-23T00:54:33.625Z,13.40
2018-09-23T00:57:01.154Z,13.50
2018-09-23T00:59:28.960Z,13.50
2018-09-23T01:01:56.498Z,13.50
2018-09-23T01:04:24.058Z,13.50
2018-09-23T01:06:51.832Z,13.50
2018-09-23T01:09:19.400Z,13.50
2018-09-23T01:11:47.047Z,13.50
2018-09-23T01:14:14.707Z,13.50
2018-09-23T01:16:42.391Z,13.40
2018-09-23T01:19:10.151Z,13.50
2018-09-23T01:21:37.781Z,13.50
2018-09-23T01:24:05.488Z,13.50
2018-09-23T01:26:33.143Z,13.50
2018-09-23T01:29:00.918Z,13.50
2018-09-23T01:31:28.542Z,13.40
2018-09-23T01:33:56.065Z,13.30
2018-09-23T01:36:23.731Z,13.30
2018-09-23T01:38:51.295Z,13.20
2018-09-23T01:41:18.873Z,13.20
2018-09-23T01:43:46.582Z,13.20
2018-09-23T01:46:14.347Z,13.20
2018-09-23T01:48:41.904Z,13.10
2018-09-23T01:51:09.546Z,13.10
2018-09-23T01:53:37.393Z,13.00
2018-09-23T01:56:04.947Z,12.90
2018-09-23T01:58:32.530Z,12.90
2018-09-23T02:01:01.604Z,12.80
2018-09-23T02:03:29.188Z,12.80
2018-09-23T02:05:56.959Z,12.70
2018-09-23T02:08:24.747Z,12.70
2018-09-23T02:10:52.322Z,12.70
2018-09-23T02:13:19.930Z,12.70
2018-09-23T02:15:47.484Z,12.70
2018-09-23T02:18:15.590Z,12.60
2018-09-23T02:20:43.235Z,12.50
2018-09-23T02:23:10.841Z,12.50
2018-09-23T02:25:38.472Z,12.50
2018-09-23T02:28:06.045Z,12.40
2018-09-23T02:30:33.630Z,12.40
2018-09-23T02:33:01.183Z,12.40
2018-09-23T02:35:28.811Z,12.40
2018-09-23T02:37:56.413Z,12.40
2018-09-23T02:40:24.065Z,12.30
2018-09-23T02:42:51.632Z,12.30
2018-09-23T02:45:19.260Z,12.30
2018-09-23T02:47:46.790Z,12.30
2018-09-23T02:50:14.575Z,12.30
2018-09-23T02:52:42.201Z,12.30
2018-09-23T02:55:09.881Z,12.30
2018-09-23T02:57:37.514Z,12.40
2018-09-23T03:00:05.771Z,12.40
2018-09-23T03:02:33.301Z,12.40
2018-09-23T03:05:00.841Z,12.30
2018-09-23T03:07:28.448Z,12.30
2018-09-23T03:09:56.005Z,12.30
2018-09-23T03:12:23.504Z,12.30
2018-09-23T03:14:51.092Z,12.30
2018-09-23T03:17:18.643Z,12.30
2018-09-23T03:19:46.245Z,12.30
2018-09-23T03:22:13.812Z,12.30
2018-09-23T03:24:41.327Z,12.30
2018-09-23T03:27:08.905Z,12.20
2018-09-23T03:29:36.485Z,12.30
2018-09-23T03:32:04.024Z,12.20
2018-09-23T03:34:31.583Z,12.20
2018-09-23T03:36:59.129Z,12.20
2018-09-23T03:39:26.742Z,12.20
2018-09-23T03:41:54.275Z,12.20
2018-09-23T03:44:21.978Z,12.20
2018-09-23T03:46:49.530Z,12.20
2018-09-23T03:49:17.216Z,12.30
2018-09-23T03:51:44.804Z,12.30
2018-09-23T03:54:13.101Z,12.30
2018-09-23T03:56:41.871Z,12.30
2018-09-23T03:59:09.615Z,12.30
2018-09-23T04:01:37.514Z,12.30
2018-09-23T04:04:05.255Z,12.30
2018-09-23T04:06:32.853Z,12.40
2018-09-23T04:09:00.437Z,12.40
2018-09-23T04:11:28.043Z,12.40
2018-09-23T04:13:55.617Z,12.50
2018-09-23T04:16:23.186Z,12.50
2018-09-23T04:18:50.760Z,12.50
2018-09-23T04:21:18.310Z,12.60
2018-09-23T04:23:45.880Z,12.70
2018-09-23T04:26:13.504Z,12.70
2018-09-23T04:28:41.142Z,12.80
2018-09-23T04:31:08.772Z,12.80
2018-09-23T04:33:36.532Z,12.90
2018-09-23T04:36:04.125Z,13.00
2018-09-23T04:38:31.693Z,13.10
2018-09-23T04:40:59.305Z,13.20
2018-09-23T04:43:26.839Z,13.30
2018-09-23T04:45:54.380Z,13.40
2018-09-23T04:48:22.016Z,13.50
2018-09-23T04:50:49.545Z,13.60
2018-09-23T04:53:17.079Z,13.70
2018-09-23T04:55:44.637Z,13.80
2018-09-23T04:58:12.192Z,13.90
2018-09-23T05:00:39.764Z,13.90
2018-09-23T05:03:07.366Z,14.00
2018-09-23T05:05:35.006Z,14.00
2018-09-23T05:08:02.611Z,14.00
2018-09-23T05:10:30.188Z,14.00
2018-09-23T05:12:58.039Z,14.10
2018-09-23T05:15:25.678Z,14.10
2018-09-23T05:17:53.212Z,14.20
2018-09-23T05:20:20.772Z,14.20
2018-09-23T05:22:48.348Z,14.20
2018-09-23T05:25:15.896Z,14.20
2018-09-23T05:27:43.463Z,14.20
2018-09-23T05:30:11.137Z,14.30
2018-09-23T05:32:38.692Z,14.30
2018-09-23T05:35:06.307Z,14.40
2018-09-23T05:37:33.882Z,14.50
2018-09-23T05:40:01.434Z,14.50
2018-09-23T05:42:29.082Z,14.60
2018-09-23T05:44:56.619Z,14.70
2018-09-23T05:47:24.262Z,14.70
2018-09-23T05:49:51.784Z,14.80
2018-09-23T05:52:19.351Z,14.90
2018-09-23T05:54:46.916Z,14.90
2018-09-23T05:57:14.511Z,14.90
2018-09-23T05:59:42.046Z,14.90
2018-09-23T06:02:09.774Z,15.00
2018-09-23T06:04:37.371Z,15.10
2018-09-23T06:07:04.953Z,15.00
2018-09-23T06:09:32.495Z,15.10
2018-09-23T06:12:00.077Z,15.10
2018-09-23T06:14:27.619Z,15.20
2018-09-23T06:16:55.185Z,15.30
2018-09-23T06:19:22.820Z,15.40
2018-09-23T06:21:50.383Z,15.40
2018-09-23T06:24:17.958Z,15.50
2018-09-23T06:26:45.491Z,15.50
2018-09-23T06:29:13.061Z,15.60
2018-09-23T06:31:40.698Z,15.70
2018-09-23T06:34:08.289Z,15.80
2018-09-23T06:36:35.884Z,15.90
2018-09-23T06:39:04.953Z,16.00
2018-09-23T06:41:32.840Z,16.00
2018-09-23T06:44:00.717Z,16.10
2018-09-23T06:46:28.293Z,16.10
2018-09-23T06:48:55.886Z,16.20
2018-09-23T06:51:23.445Z,16.30
2018-09-23T06:53:51.209Z,16.40
2018-09-23T06:56:18.759Z,16.50
2018-09-23T06:58:46.320Z,16.50
2018-09-23T07:01:13.904Z,16.60
2018-09-23T07:03:41.509Z,16.60
2018-09-23T07:06:09.136Z,16.80
2018-09-23T07:08:36.706Z,16.90
2018-09-23T07:11:04.277Z,17.00
2018-09-23T07:13:31.857Z,17.00
2018-09-23T07:15:59.472Z,17.10
2018-09-23T07:18:27.052Z,17.20
2018-09-23T07:20:54.651Z,17.30
2018-09-23T07:23:22.209Z,17.30
2018-09-23T07:25:49.784Z,17.40
2018-09-23T07:28:17.349Z,17.60
2018-09-23T07:30:44.985Z,17.70
2018-09-23T07:33:12.614Z,17.90
2018-09-23T07:35:40.216Z,18.10
2018-09-23T07:38:07.819Z,18.30
2018-09-23T07:40:35.418Z,18.60
2018-09-23T07:43:02.976Z,19.00
2018-09-23T07:45:30.579Z,19.30
2018-09-23T07:47:58.216Z,19.40
2018-09-23T07:50:25.852Z,19.50
2018-09-23T07:52:53.516Z,19.60
2018-09-23T07:55:21.159Z,19.70
2018-09-23T07:57:48.688Z,20.00
2018-09-23T08:00:16.272Z,20.20
2018-09-23T08:02:43.859Z,20.50
2018-09-23T08:05:11.485Z,20.90
2018-09-23T08:07:39.106Z,20.90
2018-09-23T08:10:06.732Z,21.10
2018-09-23T08:12:34.439Z,21.30
2018-09-23T08:15:02.138Z,22.00
2018-09-23T08:17:29.654Z,22.30
2018-09-23T08:19:57.305Z,22.50
2018-09-23T08:22:24.841Z,23.00
2018-09-23T08:24:52.442Z,23.00
2018-09-23T08:27:20.059Z,22.70
2018-09-23T08:29:47.612Z,22.40
2018-09-23T08:32:15.174Z,22.10
2018-09-23T08:34:42.924Z,22.00
2018-09-23T08:37:10.657Z,22.30
2018-09-23T08:39:38.232Z,22.50
2018-09-23T08:42:05.841Z,22.40
2018-09-23T08:44:33.404Z,22.30
2018-09-23T08:47:00.983Z,22.20
2018-09-23T08:49:28.572Z,22.00
2018-09-23T08:51:56.225Z,21.90
2018-09-23T08:54:23.803Z,21.80
2018-09-23T08:56:51.416Z,21.80
2018-09-23T08:59:19.256Z,21.70
2018-09-23T09:01:47.374Z,21.60
2018-09-23T09:04:14.938Z,21.50
2018-09-23T09:06:42.547Z,21.40
2018-09-23T09:09:10.213Z,21.20
2018-09-23T09:11:37.879Z,21.10
2018-09-23T09:14:05.547Z,21.00
2018-09-23T09:16:33.585Z,21.00
2018-09-23T09:19:01.222Z,20.90
2018-09-23T09:21:28.809Z,20.90
2018-09-23T09:23:56.463Z,20.70
2018-09-23T09:26:24.035Z,20.70
2018-09-23T09:28:51.663Z,20.60
2018-09-23T09:31:19.367Z,20.60
2018-09-23T09:33:47.237Z,20.70
2018-09-23T09:36:14.840Z,20.70
2018-09-23T09:38:42.504Z,20.70
2018-09-23T09:41:10.194Z,20.70
2018-09-23T09:43:37.793Z,20.70
2018-09-23T09:46:06.086Z,20.70
2018-09-23T09:48:33.698Z,20.70
2018-09-23T09:51:01.325Z,20.70
2018-09-23T09:53:28.983Z,20.80
2018-09-23T09:55:56.605Z,20.80
2018-09-23T09:58:24.213Z,20.90
2018-09-23T10:00:51.846Z,20.90
2018-09-23T10:03:19.518Z,21.00
2018-09-23T10:05:47.229Z,21.00
2018-09-23T10:08:14.824Z,21.10
2018-09-23T10:10:42.425Z,21.10
2018-09-23T10:13:10.185Z,21.20
2018-09-23T10:15:37.808Z,21.20
2018-09-23T10:18:05.528Z,21.40
2018-09-23T10:20:33.191Z,21.40
2018-09-23T10:23:00.852Z,21.50
2018-09-23T10:25:28.685Z,21.50
2018-09-23T10:27:56.321Z,21.60
2018-09-23T10:30:23.968Z,21.70
2018-09-23T10:32:51.620Z,21.80
2018-09-23T10:35:19.613Z,21.80
2018-09-23T10:37:47.309Z,22.00
2018-09-23T10:40:14.968Z,22.10
2018-09-23T10:42:42.564Z,22.30
2018-09-23T10:45:10.189Z,22.50
2018-09-23T10:47:37.824Z,22.60
2018-09-23T10:50:05.579Z,22.70
2018-09-23T10:52:33.226Z,22.70
2018-09-23T10:55:00.773Z,22.80
2018-09-23T10:57:28.392Z,22.70
2018-09-23T10:59:56.094Z,22.70
2018-09-23T11:02:23.684Z,22.70
2018-09-23T11:04:51.349Z,22.60
2018-09-23T11:07:18.974Z,22.60
2018-09-23T11:09:46.630Z,22.60
2018-09-23T11:12:14.249Z,22.70
2018-09-23T11:14:41.843Z,22.70
2018-09-23T11:17:09.457Z,22.80
2018-09-23T11:19:37.082Z,22.90
2018-09-23T11:22:04.678Z,23.00
2018-09-23T11:24:32.221Z,23.00
2018-09-23T11:26:59.813Z,23.10
2018-09-23T11:29:27.453Z,23.20
2018-09-23T11:31:55.540Z,23.20
2018-09-23T11:34:23.163Z,23.30
2018-09-23T11:36:50.689Z,23.30
2018-09-23T11:39:18.342Z,23.50
2018-09-23T11:41:45.937Z,23.90
2018-09-23T11:44:13.543Z,24.00
2018-09-23T11:49:15.509Z,24.50
2018-09-23T11:51:43.072Z,24.90
2018-09-23T11:54:10.751Z,25.70
2018-09-23T11:56:38.366Z,25.90
2018-09-23T11:59:06.040Z,26.10
2018-09-23T12:01:33.551Z,26.60
2018-09-23T12:04:01.193Z,27.50
2018-09-23T12:06:28.773Z,27.60
2018-09-23T12:08:56.329Z,27.50
2018-09-23T12:11:23.936Z,27.30
2018-09-23T12:13:51.621Z,27.60
2018-09-23T12:16:19.206Z,27.80
2018-09-23T12:18:46.737Z,27.50
2018-09-23T12:21:14.349Z,27.20
2018-09-23T12:23:41.949Z,26.70
2018-09-23T12:26:09.910Z,26.60
2018-09-23T12:28:37.779Z,27.00
2018-09-23T12:31:05.654Z,27.00
2018-09-23T12:33:33.225Z,26.10
2018-09-23T12:36:02.352Z,25.80
2018-09-23T12:38:31.313Z,25.60
2018-09-23T12:40:58.887Z,25.40
2018-09-23T12:43:26.646Z,25.20
2018-09-23T12:45:54.569Z,25.60
2018-09-23T12:48:22.248Z,25.60
2018-09-23T12:50:49.894Z,25.80
2018-09-23T12:53:17.544Z,25.90
2018-09-23T12:55:45.158Z,26.10
2018-09-23T12:58:12.706Z,25.90
2018-09-23T13:00:40.378Z,25.80
2018-09-23T13:03:08.082Z,25.20
2018-09-23T13:05:35.738Z,25.30
2018-09-23T13:08:03.413Z,25.00
2018-09-23T13:10:31.018Z,24.80
2018-09-23T13:12:58.692Z,24.80
2018-09-23T13:15:26.346Z,24.60
2018-09-23T13:17:54.020Z,24.50
2018-09-23T13:20:21.780Z,24.40
2018-09-23T13:22:49.400Z,24.30
2018-09-23T13:25:17.034Z,24.20
2018-09-23T13:27:44.681Z,24.10
2018-09-23T13:30:12.466Z,24.00
2018-09-23T13:32:40.061Z,24.10
2018-09-23T13:35:07.673Z,23.90
2018-09-23T13:37:35.261Z,24.00
2018-09-23T13:40:02.967Z,24.00
2018-09-23T13:42:30.635Z,24.00
2018-09-23T13:44:58.217Z,23.90
2018-09-23T13:47:25.876Z,24.10
2018-09-23T13:49:53.484Z,24.20
2018-09-23T13:52:21.089Z,24.30
2018-09-23T13:54:48.665Z,24.20
2018-09-23T13:57:16.273Z,24.10
2018-09-23T13:59:43.868Z,24.10
2018-09-23T14:02:11.481Z,24.20
2018-09-23T14:04:39.191Z,24.10
2018-09-23T14:07:06.839Z,24.00
2018-09-23T14:09:34.414Z,24.00
2018-09-23T14:12:02.359Z,24.00
2018-09-23T14:14:29.950Z,24.00
2018-09-23T14:16:57.566Z,24.00
2018-09-23T14:19:25.148Z,24.00
2018-09-23T14:21:53.143Z,24.00
2018-09-23T14:24:20.754Z,23.90
2018-09-23T14:26:48.405Z,23.80
2018-09-23T14:29:16.008Z,23.80
2018-09-23T14:31:43.597Z,23.70
2018-09-23T14:34:11.287Z,23.70
2018-09-23T14:36:38.905Z,23.80
2018-09-23T14:39:08.537Z,23.80
2018-09-23T14:41:36.639Z,23.80
2018-09-23T14:44:04.381Z,23.90
2018-09-23T14:46:32.101Z,23.90
2018-09-23T14:48:59.737Z,23.80
2018-09-23T14:51:27.476Z,23.80
2018-09-23T14:53:55.165Z,23.80
2018-09-23T14:56:22.765Z,23.80
2018-09-23T14:58:50.373Z,23.70
2018-09-23T15:01:18.000Z,23.80
2018-09-23T15:03:45.643Z,23.80
2018-09-23T15:06:13.367Z,23.80
2018-09-23T15:08:41.045Z,23.80
2018-09-23T15:11:08.688Z,23.80
2018-09-23T15:13:36.355Z,23.80
2018-09-23T15:16:03.992Z,23.80
2018-09-23T15:18:31.861Z,23.80
2018-09-23T15:20:59.448Z,23.80
2018-09-23T15:23:27.169Z,23.80
2018-09-23T15:25:54.758Z,23.80
2018-09-23T15:28:22.371Z,23.80
2018-09-23T15:30:50.020Z,23.70
2018-09-23T15:33:17.617Z,23.70
2018-09-23T15:35:45.247Z,23.80
2018-09-23T15:38:12.846Z,23.80
2018-09-23T15:40:40.486Z,23.80
2018-09-23T15:43:08.300Z,23.70
2018-09-23T15:45:36.003Z,23.80
2018-09-23T15:48:03.654Z,23.70
2018-09-23T15:50:31.313Z,23.70
2018-09-23T15:52:58.981Z,23.80
2018-09-23T15:55:26.586Z,23.90
2018-09-23T15:57:54.246Z,23.90
2018-09-23T16:00:21.853Z,24.30
2018-09-23T16:02:49.474Z,24.50
2018-09-23T16:05:17.264Z,24.50
2018-09-23T16:07:44.965Z,24.40
2018-09-23T16:10:12.591Z,24.30
2018-09-23T16:12:40.166Z,24.10
2018-09-23T16:15:07.799Z,24.00
2018-09-23T16:17:35.432Z,23.90
2018-09-23T16:20:03.185Z,23.90
2018-09-23T16:22:30.833Z,23.80
2018-09-23T16:24:58.472Z,23.80
2018-09-23T16:27:26.165Z,23.70
2018-09-23T16:29:54.283Z,23.50
2018-09-23T16:32:21.923Z,23.10
2018-09-23T16:34:49.683Z,22.50
2018-09-23T16:37:17.268Z,22.00
2018-09-23T16:39:44.855Z,21.60
2018-09-23T16:42:12.465Z,20.10
2018-09-23T16:44:40.010Z,19.40
2018-09-23T16:47:07.617Z,18.30
2018-09-23T16:49:35.275Z,17.70
2018-09-23T16:52:02.880Z,17.20
2018-09-23T16:54:30.627Z,16.90
2018-09-23T16:56:58.194Z,16.60
2018-09-23T16:59:25.848Z,16.50
2018-09-23T17:01:53.590Z,16.40
2018-09-23T17:04:21.291Z,16.30
2018-09-23T17:06:48.949Z,16.20
2018-09-23T17:09:16.522Z,16.10
2018-09-23T17:11:44.241Z,16.00
2018-09-23T17:14:11.953Z,15.90
2018-09-23T17:16:39.640Z,15.90
2018-09-23T17:19:07.418Z,15.90
2018-09-23T17:21:35.054Z,15.80
2018-09-23T17:24:02.685Z,15.80
2018-09-23T17:26:30.324Z,15.80
2018-09-23T17:28:57.916Z,15.80
2018-09-23T17:31:25.577Z,15.80
2018-09-23T17:33:53.224Z,15.80
2018-09-23T17:36:20.968Z,15.70
2018-09-23T17:38:48.566Z,15.80
2018-09-23T17:41:16.904Z,15.70
2018-09-23T17:43:44.581Z,15.70
2018-09-23T17:46:12.416Z,15.60
2018-09-23T17:48:39.987Z,15.60
2018-09-23T17:51:07.585Z,15.60
2018-09-23T17:53:35.447Z,15.60
2018-09-23T17:56:03.013Z,15.50
2018-09-23T17:58:30.723Z,15.50
2018-09-23T18:00:58.457Z,15.50
2018-09-23T18:03:26.144Z,15.50
2018-09-23T18:05:53.896Z,15.50
2018-09-23T18:08:21.584Z,15.50
2018-09-23T18:10:49.461Z,15.50
2018-09-23T18:13:17.200Z,15.30
2018-09-23T18:15:44.774Z,15.10
2018-09-23T18:18:13.993Z,14.70
2018-09-23T18:20:41.659Z,14.30
2018-09-23T18:23:09.316Z,14.00
2018-09-23T18:25:36.929Z,13.90
2018-09-23T18:28:04.739Z,13.80
2018-09-23T18:30:32.336Z,13.60
2018-09-23T18:33:00.037Z,13.60
2018-09-23T18:35:27.669Z,13.40
2018-09-23T18:37:55.255Z,13.40
2018-09-23T18:40:22.991Z,13.30
2018-09-23T18:42:50.689Z,13.20
2018-09-23T18:45:18.345Z,13.10
2018-09-23T18:47:45.994Z,13.10
2018-09-23T18:50:13.624Z,13.10
2018-09-23T18:52:41.265Z,13.10
2018-09-23T18:55:14.688Z,13.10
2018-09-23T18:57:42.266Z,13.10
2018-09-23T19:00:10.129Z,13.00
2018-09-23T19:02:37.790Z,12.90
2018-09-23T19:05:05.408Z,12.90
2018-09-23T19:07:33.029Z,12.80
2018-09-23T19:10:00.681Z,12.70
2018-09-23T19:12:28.338Z,12.70
2018-09-23T19:14:56.025Z,12.70
2018-09-23T19:17:23.727Z,12.60
2018-09-23T19:19:56.866Z,12.60
2018-09-23T19:22:30.029Z,12.50
2018-09-23T19:24:57.645Z,12.50
2018-09-23T19:27:25.285Z,12.40
2018-09-23T19:29:52.886Z,12.40
2018-09-23T19:32:20.557Z,12.30
2018-09-23T19:34:48.213Z,12.30
2018-09-23T19:37:15.825Z,12.30
2018-09-23T19:39:43.777Z,12.20
2018-09-23T19:42:11.569Z,12.10
2018-09-23T19:44:39.166Z,12.10
2018-09-23T19:47:06.793Z,12.10
2018-09-23T19:49:34.331Z,12.10
2018-09-23T19:52:01.961Z,12.00
2018-09-23T19:54:29.602Z,12.00
2018-09-23T19:56:57.208Z,12.00
2018-09-23T19:59:24.815Z,11.90
2018-09-23T20:01:52.425Z,11.90
2018-09-23T20:04:20.117Z,11.80
2018-09-23T20:06:47.703Z,11.80
2018-09-23T20:09:15.288Z,11.80
2018-09-23T20:11:43.127Z,11.80
2018-09-23T20:14:10.864Z,11.80
2018-09-23T20:16:38.411Z,11.80
2018-09-23T20:19:06.487Z,11.70
2018-09-23T20:21:34.502Z,11.70
2018-09-23T20:24:02.115Z,11.50
2018-09-23T20:26:29.762Z,11.50
2018-09-23T20:28:57.332Z,11.40
2018-09-23T20:31:24.963Z,11.40
2018-09-23T20:33:52.582Z,11.30
2018-09-23T20:36:20.176Z,11.40
2018-09-23T20:38:48.011Z,11.40
2018-09-23T20:41:15.543Z,11.30
2018-09-23T20:43:43.299Z,11.30
2018-09-23T20:46:11.006Z,11.30
2018-09-23T20:48:38.554Z,11.20
2018-09-23T20:51:06.164Z,11.20
2018-09-23T20:53:33.799Z,11.10
2018-09-23T20:56:01.428Z,11.10
2018-09-23T20:58:29.301Z,11.00
2018-09-23T21:00:56.905Z,11.00
2018-09-23T21:03:24.522Z,11.00
2018-09-23T21:05:52.177Z,11.00
2018-09-23T21:08:19.780Z,10.90
2018-09-23T21:10:47.421Z,11.00
2018-09-23T21:13:14.983Z,11.00
2018-09-23T21:15:42.624Z,11.00
2018-09-23T21:18:10.306Z,11.00
2018-09-23T21:20:37.924Z,11.00
2018-09-23T21:23:05.865Z,11.00
2018-09-23T21:25:33.549Z,11.00
2018-09-23T21:28:01.176Z,11.00
2018-09-23T21:30:28.772Z,11.00
2018-09-23T21:32:56.396Z,11.00
2018-09-23T21:35:24.058Z,11.00
2018-09-23T21:37:51.784Z,11.00
2018-09-23T21:40:19.345Z,11.00
2018-09-23T21:42:46.922Z,11.00
2018-09-23T21:45:14.531Z,10.90
2018-09-23T21:47:42.187Z,10.90
2018-09-23T21:50:09.843Z,10.90
2018-09-23T21:52:37.473Z,10.90
2018-09-23T21:55:05.093Z,10.80
2018-09-23T21:57:32.694Z,10.80
2018-09-23T22:00:00.264Z,10.80
2018-09-23T22:02:27.904Z,10.80
2018-09-23T22:04:55.477Z,10.70
2018-09-23T22:07:23.064Z,10.70
2018-09-23T22:09:50.609Z,10.70
2018-09-23T22:12:18.212Z,10.60
2018-09-23T22:14:45.772Z,10.60
2018-09-23T22:17:13.401Z,10.50
2018-09-23T22:19:41.043Z,10.50
2018-09-23T22:22:08.658Z,10.50
2018-09-23T22:24:36.262Z,10.60
2018-09-23T22:27:03.926Z,10.50
2018-09-23T22:29:31.500Z,10.50
2018-09-23T22:31:59.235Z,10.50
2018-09-23T22:34:26.977Z,10.50
2018-09-23T22:36:54.597Z,10.60
2018-09-23T22:39:22.213Z,10.60
2018-09-23T22:41:49.788Z,10.50
2018-09-23T22:44:17.355Z,10.50
2018-09-23T22:46:44.913Z,10.60
2018-09-23T22:49:12.564Z,10.60
2018-09-23T22:51:40.262Z,10.60
2018-09-23T22:54:07.866Z,10.60
2018-09-23T22:56:35.433Z,10.60
2018-09-23T22:59:03.071Z,10.70
2018-09-23T23:01:30.657Z,10.70
2018-09-23T23:03:58.248Z,10.60
2018-09-23T23:06:25.802Z,10.50
2018-09-23T23:08:53.400Z,10.50
2018-09-23T23:11:21.067Z,10.40
2018-09-23T23:13:48.625Z,10.40
2018-09-23T23:16:16.221Z,10.40
2018-09-23T23:18:43.845Z,10.30
2018-09-23T23:21:12.341Z,10.30
2018-09-23T23:23:39.986Z,10.30
2018-09-23T23:26:07.535Z,10.30
2018-09-23T23:28:35.104Z,10.30
2018-09-23T23:31:02.681Z,10.30
2018-09-23T23:33:30.260Z,10.30
2018-09-23T23:35:57.845Z,10.40
2018-09-23T23:38:25.693Z,10.40
2018-09-23T23:40:53.262Z,10.40
2018-09-23T23:43:20.904Z,10.40
2018-09-23T23:45:48.477Z,10.30
2018-09-23T23:48:16.053Z,10.30
2018-09-23T23:50:43.658Z,10.30
2018-09-23T23:53:11.372Z,10.30
2018-09-23T23:55:39.002Z,10.20
2018-09-23T23:58:06.615Z,10.20
